createdAt,value
2022-12-08T00:00:18.826Z,81.85
2022-12-08T00:03:39.046Z,82.64
2022-12-08T00:07:03.041Z,83.17
2022-12-08T00:10:48.061Z,83.01
2022-12-08T00:13:52.302Z,83.64
2022-12-08T00:17:05.941Z,82.66
2022-12-08T00:20:09.491Z,82.65
2022-12-08T00:23:23.557Z,82.90
2022-12-08T00:26:39.650Z,83.17
2022-12-08T00:30:00.961Z,83.67
2022-12-08T00:33:17.602Z,83.72
2022-12-08T00:36:39.714Z,83.13
2022-12-08T00:40:03.002Z,83.71
2022-12-08T00:43:31.517Z,83.41
2022-12-08T00:46:54.679Z,82.63
2022-12-08T00:50:16.677Z,82.22
2022-12-08T00:53:38.537Z,82.89
2022-12-08T00:57:01.515Z,83.11
2022-12-08T01:00:23.605Z,82.03
2022-12-08T01:03:46.682Z,82.37
2022-12-08T01:07:09.447Z,82.57
2022-12-08T01:10:28.698Z,81.87
2022-12-08T01:13:49.551Z,82.40
2022-12-08T01:17:08.367Z,82.67
2022-12-08T01:20:31.510Z,82.88
2022-12-08T01:23:59.612Z,83.09
2022-12-08T01:27:23.581Z,83.62
2022-12-08T01:30:46.620Z,83.75
2022-12-08T01:34:10.016Z,84.21
2022-12-08T01:37:27.609Z,83.71
2022-12-08T01:40:30.431Z,84.32
2022-12-08T01:44:11.163Z,84.80
2022-12-08T01:47:33.522Z,84.91
2022-12-08T01:50:51.535Z,84.92
2022-12-08T01:54:03.524Z,84.11
2022-12-08T01:57:37.406Z,83.26
2022-12-08T02:00:58.583Z,84.25
2022-12-08T02:04:21.354Z,85.07
2022-12-08T02:07:46.653Z,84.45
2022-12-08T02:10:54.895Z,83.64
2022-12-08T02:14:00.817Z,83.74
2022-12-08T02:17:42.968Z,83.91
2022-12-08T02:20:55.806Z,84.06
2022-12-08T02:24:21.512Z,84.20
2022-12-08T02:28:11.449Z,84.76
2022-12-08T02:31:17.729Z,84.01
2022-12-08T02:35:38.290Z,84.14
2022-12-08T02:39:38.376Z,84.73
2022-12-08T02:42:56.080Z,85.13
2022-12-08T02:46:10.454Z,84.98
2022-12-08T02:49:33.435Z,84.21
2022-12-08T02:52:48.264Z,83.80
2022-12-08T02:56:05.379Z,82.10
2022-12-08T02:59:32.357Z,82.90
2022-12-08T03:03:01.406Z,82.98
2022-12-08T03:06:25.803Z,83.50
2022-12-08T03:09:41.875Z,83.52
2022-12-08T03:12:59.196Z,83.30
2022-12-08T03:16:13.637Z,83.67
2022-12-08T03:19:44.446Z,82.97
2022-12-08T03:22:49.525Z,83.33
2022-12-08T03:26:12.331Z,82.36
2022-12-08T03:29:38.159Z,83.02
2022-12-08T03:33:18.393Z,83.36
2022-12-08T03:36:29.323Z,82.79
2022-12-08T03:39:49.243Z,82.63
2022-12-08T03:43:09.176Z,82.94
2022-12-08T03:49:55.148Z,82.81
2022-12-08T03:53:18.076Z,83.06
2022-12-08T03:56:39.352Z,82.51
2022-12-08T03:59:55.297Z,82.77
2022-12-08T04:03:15.187Z,83.49
2022-12-08T04:06:39.202Z,82.49
2022-12-08T04:09:59.222Z,82.67
2022-12-08T04:13:15.339Z,82.68
2022-12-08T04:16:29.687Z,82.73
2022-12-08T04:19:33.326Z,82.76
2022-12-08T04:22:53.816Z,82.37
2022-12-08T04:26:14.629Z,82.60
2022-12-08T04:29:35.816Z,82.12
2022-12-08T04:32:47.494Z,82.31
2022-12-08T04:36:11.717Z,82.24
2022-12-08T04:39:35.934Z,82.04
2022-12-08T04:43:04.074Z,82.87
2022-12-08T04:46:30.910Z,82.81
2022-12-08T04:49:46.935Z,82.41
2022-12-08T04:53:01.782Z,82.15
2022-12-08T04:56:31.908Z,81.90
2022-12-08T04:59:52.068Z,81.96
2022-12-08T05:03:14.177Z,82.26
2022-12-08T05:06:50.208Z,82.22
2022-12-08T05:10:10.355Z,82.21
2022-12-08T05:13:26.014Z,81.58
2022-12-08T05:16:46.075Z,81.44
2022-12-08T05:20:07.241Z,81.41
2022-12-08T05:23:28.969Z,81.90
2022-12-08T05:26:58.163Z,82.44
2022-12-08T05:30:01.131Z,82.57
2022-12-08T05:33:05.285Z,82.69
2022-12-08T05:36:16.595Z,82.58
2022-12-08T05:39:39.836Z,82.64
2022-12-08T05:43:00.600Z,81.94
2022-12-08T05:46:04.003Z,82.44
2022-12-08T05:49:19.945Z,82.24
2022-12-08T05:52:29.665Z,82.09
2022-12-08T05:55:38.860Z,82.48
2022-12-08T05:59:01.808Z,82.52
2022-12-08T06:02:29.931Z,82.04
2022-12-08T06:05:45.018Z,81.83
2022-12-08T06:08:57.119Z,81.10
2022-12-08T06:12:13.589Z,81.08
2022-12-08T06:15:24.803Z,81.92
2022-12-08T06:18:32.580Z,81.18
2022-12-08T06:21:50.902Z,81.68
2022-12-08T06:25:10.229Z,80.37
2022-12-08T06:28:20.266Z,81.25
2022-12-08T06:31:37.118Z,81.19
2022-12-08T06:34:53.643Z,80.83
2022-12-08T06:38:33.716Z,81.23
2022-12-08T06:42:30.802Z,80.32
2022-12-08T06:45:52.829Z,80.49
2022-12-08T06:48:59.105Z,80.42
2022-12-08T06:57:30.068Z,81.72
2022-12-08T07:00:37.648Z,83.31
2022-12-08T07:03:55.714Z,82.80
2022-12-08T07:07:22.164Z,83.10
2022-12-08T07:10:42.880Z,81.86
2022-12-08T07:14:00.763Z,82.70
2022-12-08T07:17:12.204Z,81.75
2022-12-08T07:20:37.693Z,82.33
2022-12-08T07:24:10.558Z,82.77
2022-12-08T07:28:07.346Z,81.88
2022-12-08T07:31:28.067Z,81.81
2022-12-08T07:34:40.445Z,82.16
2022-12-08T07:39:04.082Z,82.16
2022-12-08T07:42:14.166Z,80.22
2022-12-08T07:45:28.345Z,80.99
2022-12-08T07:48:55.835Z,81.05
2022-12-08T07:53:37.896Z,81.09
2022-12-08T08:02:27.947Z,80.62
2022-12-08T08:06:05.466Z,79.74
2022-12-08T08:09:12.011Z,80.44
2022-12-08T08:12:41.810Z,79.62
2022-12-08T08:16:04.618Z,80.14
2022-12-08T08:19:11.795Z,79.71
2022-12-08T08:23:26.947Z,79.59
2022-12-08T08:26:47.213Z,79.71
2022-12-08T08:29:59.640Z,79.54
2022-12-08T08:33:23.307Z,79.25
2022-12-08T08:36:44.048Z,78.62
2022-12-08T08:40:18.049Z,78.85
2022-12-08T08:43:49.245Z,78.81
2022-12-08T08:47:45.162Z,78.34
2022-12-08T08:51:17.635Z,78.38
2022-12-08T08:59:50.972Z,77.90
2022-12-08T09:04:20.906Z,77.71
2022-12-08T09:08:10.469Z,76.97
2022-12-08T09:11:26.904Z,76.75
2022-12-08T09:14:47.803Z,76.85
2022-12-08T09:18:20.706Z,76.71
2022-12-08T09:22:49.273Z,75.73
2022-12-08T09:26:12.545Z,75.78
2022-12-08T09:29:48.736Z,75.33
2022-12-08T09:33:12.486Z,76.08
2022-12-08T09:37:26.862Z,76.38
2022-12-08T09:41:03.670Z,76.12
2022-12-08T09:44:35.490Z,75.97
2022-12-08T09:48:29.544Z,74.87
2022-12-08T09:52:29.199Z,74.81
2022-12-08T09:56:19.472Z,74.88
2022-12-08T09:59:44.128Z,74.55
2022-12-08T10:03:16.433Z,74.19
2022-12-08T10:07:14.637Z,73.53
2022-12-08T10:11:28.939Z,73.12
2022-12-08T10:15:29.629Z,72.11
2022-12-08T10:18:48.376Z,73.91
2022-12-08T10:22:00.267Z,73.78
2022-12-08T10:25:28.309Z,73.38
2022-12-08T10:29:31.347Z,73.41
2022-12-08T10:34:03.098Z,73.02
2022-12-08T10:38:19.327Z,73.17
2022-12-08T10:41:46.164Z,73.05
2022-12-08T10:51:32.284Z,70.96
2022-12-08T11:00:50.125Z,70.99
2022-12-08T11:04:29.469Z,71.26
2022-12-08T11:08:05.536Z,71.31
2022-12-08T11:12:06.155Z,70.08
2022-12-08T11:16:20.453Z,70.12
2022-12-08T11:20:03.891Z,70.25
2022-12-08T11:23:58.099Z,70.17
2022-12-08T11:33:27.407Z,68.62
2022-12-08T11:38:19.833Z,68.63
2022-12-08T11:42:17.322Z,67.60
2022-12-08T11:46:55.527Z,68.00
2022-12-08T11:51:40.869Z,66.83
2022-12-08T11:55:52.939Z,67.90
2022-12-08T11:59:49.239Z,66.94
2022-12-08T12:08:48.128Z,67.63
2022-12-08T12:12:52.972Z,65.17
2022-12-08T12:17:25.681Z,64.89
2022-12-08T12:21:47.265Z,64.23
2022-12-08T12:25:55.193Z,64.74
2022-12-08T12:29:38.797Z,64.53
2022-12-08T12:33:06.104Z,63.85
2022-12-08T12:36:26.651Z,63.60
2022-12-08T12:40:33.754Z,62.91
2022-12-08T12:44:27.608Z,62.72
2022-12-08T12:48:16.641Z,63.10
2022-12-08T12:51:44.732Z,64.43
2022-12-08T12:56:04.597Z,66.92
2022-12-08T13:00:03.560Z,71.47
2022-12-08T13:03:28.344Z,72.74
2022-12-08T13:06:51.124Z,72.90
2022-12-08T13:10:44.698Z,72.70
2022-12-08T13:14:08.250Z,75.31
2022-12-08T13:18:17.978Z,75.46
2022-12-08T13:22:30.954Z,74.08
2022-12-08T13:26:29.221Z,75.18
2022-12-08T13:29:47.903Z,72.11
2022-12-08T13:33:22.896Z,72.47
2022-12-08T13:37:10.959Z,70.66
2022-12-08T13:40:48.015Z,68.69
2022-12-08T13:57:58.478Z,64.70
2022-12-08T14:01:27.857Z,65.09
2022-12-08T14:09:47.155Z,64.99
2022-12-08T14:17:35.491Z,69.73
2022-12-08T14:21:24.013Z,70.39
2022-12-08T14:25:10.367Z,70.97
2022-12-08T14:28:56.568Z,70.71
2022-12-08T14:32:42.385Z,71.12
2022-12-08T14:36:20.846Z,71.65
2022-12-08T14:40:22.870Z,73.13
2022-12-08T14:43:46.268Z,72.72
2022-12-08T14:47:21.694Z,72.94
2022-12-08T14:50:51.053Z,72.39
2022-12-08T14:54:16.336Z,72.66
2022-12-08T14:57:44.161Z,72.48
2022-12-08T15:01:19.273Z,72.70
2022-12-08T15:05:03.325Z,71.57
2022-12-08T15:09:30.032Z,71.36
2022-12-08T15:13:16.547Z,71.04
2022-12-08T15:16:53.659Z,70.78
2022-12-08T15:20:39.966Z,70.50
2022-12-08T15:24:06.824Z,70.33
2022-12-08T15:27:49.881Z,70.29
2022-12-08T15:31:02.819Z,70.38
2022-12-08T15:34:20.786Z,69.44
2022-12-08T15:37:47.140Z,69.32
2022-12-08T15:41:14.857Z,68.55
2022-12-08T15:44:33.694Z,69.07
2022-12-08T15:47:47.089Z,69.74
2022-12-08T15:51:07.109Z,69.84
2022-12-08T15:54:30.369Z,70.20
2022-12-08T15:58:52.441Z,69.64
2022-12-08T16:01:28.106Z,68.68
2022-12-08T16:05:40.144Z,68.65
2022-12-08T16:08:45.181Z,69.51
2022-12-08T16:12:14.985Z,69.62
2022-12-08T16:19:14.866Z,71.98
2022-12-08T16:26:16.827Z,71.47
2022-12-08T16:29:35.195Z,71.17
2022-12-08T16:32:38.232Z,71.69
2022-12-08T16:35:42.566Z,72.02
2022-12-08T16:38:52.550Z,72.17
2022-12-08T16:42:39.518Z,72.97
2022-12-08T16:45:45.004Z,73.13
2022-12-08T16:49:08.975Z,74.76
2022-12-08T16:52:35.109Z,75.03
2022-12-08T16:55:51.886Z,74.12
2022-12-08T16:59:09.310Z,73.92
2022-12-08T17:02:26.011Z,73.37
2022-12-08T17:05:57.848Z,73.35
2022-12-08T17:09:18.703Z,72.56
2022-12-08T17:12:43.532Z,72.62
2022-12-08T17:16:02.769Z,74.30
2022-12-08T17:19:13.932Z,73.42
2022-12-08T17:22:16.914Z,72.59
2022-12-08T17:25:20.990Z,73.11
2022-12-08T17:28:59.043Z,73.10
2022-12-08T17:32:19.688Z,72.31
2022-12-08T17:35:39.479Z,72.73
2022-12-08T17:38:50.510Z,72.67
2022-12-08T17:42:05.960Z,72.38
2022-12-08T17:45:22.302Z,72.33
2022-12-08T17:48:31.401Z,72.04
2022-12-08T17:51:46.672Z,72.73
2022-12-08T17:54:54.300Z,73.18
2022-12-08T17:58:11.056Z,74.13
2022-12-08T18:01:15.811Z,72.58
2022-12-08T18:04:20.701Z,74.00
2022-12-08T18:07:26.846Z,73.52
2022-12-08T18:10:48.293Z,73.09
2022-12-08T18:14:17.817Z,73.15
2022-12-08T18:17:40.798Z,73.39
2022-12-08T18:21:05.014Z,73.44
2022-12-08T18:24:24.676Z,73.11
2022-12-08T18:27:43.187Z,73.14
2022-12-08T18:30:55.489Z,72.47
2022-12-08T18:34:11.951Z,72.28
2022-12-08T18:37:41.071Z,71.82
2022-12-08T18:41:17.019Z,71.91
2022-12-08T18:44:38.435Z,71.21
2022-12-08T18:48:02.429Z,71.18
2022-12-08T18:51:21.540Z,71.20
2022-12-08T18:54:58.164Z,70.60
2022-12-08T18:58:06.763Z,71.01
2022-12-08T19:01:22.704Z,70.77
2022-12-08T19:04:48.303Z,71.63
2022-12-08T19:08:00.423Z,71.09
2022-12-08T19:11:29.262Z,71.46
2022-12-08T19:14:51.644Z,71.28
2022-12-08T19:18:11.736Z,70.67
2022-12-08T19:21:40.127Z,70.36
2022-12-08T19:24:50.947Z,70.97
2022-12-08T19:28:00.503Z,71.45
2022-12-08T19:31:14.377Z,72.16
2022-12-08T19:34:19.294Z,70.79
2022-12-08T19:37:25.122Z,69.67
2022-12-08T19:40:47.299Z,69.99
2022-12-08T19:44:15.932Z,69.60
2022-12-08T19:47:30.915Z,70.76
2022-12-08T19:50:37.887Z,70.07
2022-12-08T19:53:49.162Z,71.38
2022-12-08T19:57:10.463Z,70.85
2022-12-08T20:00:28.613Z,70.92
2022-12-08T20:03:51.562Z,70.50
2022-12-08T20:07:14.565Z,71.11
2022-12-08T20:10:37.629Z,70.27
2022-12-08T20:13:54.540Z,71.90
2022-12-08T20:17:19.516Z,71.35
2022-12-08T20:20:42.482Z,71.84
2022-12-08T20:24:03.866Z,71.07
2022-12-08T20:27:31.804Z,71.00
2022-12-08T20:30:51.687Z,72.20
2022-12-08T20:34:08.562Z,72.12
2022-12-08T20:37:33.466Z,73.38
2022-12-08T20:40:51.651Z,72.62
2022-12-08T20:44:12.455Z,72.72
2022-12-08T20:47:39.416Z,73.30
2022-12-08T20:51:01.544Z,73.57
2022-12-08T20:54:11.500Z,73.39
2022-12-08T20:57:34.429Z,73.42
2022-12-08T21:01:00.850Z,74.04
2022-12-08T21:04:20.655Z,74.01
2022-12-08T21:07:47.568Z,74.14
2022-12-08T21:11:12.512Z,74.61
2022-12-08T21:14:30.679Z,74.73
2022-12-08T21:17:34.927Z,74.60
2022-12-08T21:20:43.424Z,75.10
2022-12-08T21:23:57.113Z,74.34
2022-12-08T21:27:07.024Z,75.01
2022-12-08T21:30:17.208Z,74.82
2022-12-08T21:33:21.273Z,75.62
2022-12-08T21:36:28.354Z,75.51
2022-12-08T21:39:43.889Z,75.02
2022-12-08T21:42:57.649Z,75.21
2022-12-08T21:46:00.837Z,75.64
2022-12-08T21:49:11.405Z,75.60
2022-12-08T21:52:34.369Z,75.49
2022-12-08T21:55:56.347Z,75.69
2022-12-08T21:59:23.315Z,75.89
2022-12-08T22:02:45.898Z,76.03
2022-12-08T22:05:55.272Z,76.10
2022-12-08T22:08:58.471Z,75.66
2022-12-08T22:12:17.952Z,75.17
2022-12-08T22:15:21.451Z,75.99
2022-12-08T22:18:45.465Z,75.11
2022-12-08T22:22:05.936Z,75.79
2022-12-08T22:25:31.781Z,76.34
2022-12-08T22:28:56.593Z,75.73
2022-12-08T22:32:28.100Z,76.29
2022-12-08T22:36:11.409Z,76.29
2022-12-08T22:39:37.093Z,76.99
2022-12-08T22:43:12.155Z,76.97
2022-12-08T22:46:28.198Z,77.01
2022-12-08T22:49:32.496Z,76.81
2022-12-08T22:52:36.631Z,76.42
2022-12-08T22:55:51.798Z,76.58
2022-12-08T22:58:59.136Z,77.08
2022-12-08T23:02:03.147Z,76.84
2022-12-08T23:05:10.524Z,76.60
2022-12-08T23:08:23.221Z,76.53
2022-12-08T23:11:39.416Z,76.46
2022-12-08T23:15:05.111Z,76.43
2022-12-08T23:18:29.008Z,76.72
2022-12-08T23:21:49.292Z,77.11
2022-12-08T23:25:12.152Z,77.65
2022-12-08T23:28:25.782Z,77.60
2022-12-08T23:31:33.441Z,77.24
2022-12-08T23:34:43.526Z,77.16
2022-12-08T23:37:54.847Z,77.66
2022-12-08T23:41:17.322Z,77.71
2022-12-08T23:44:45.109Z,77.24
2022-12-08T23:48:09.934Z,77.52
2022-12-08T23:51:26.195Z,77.53
2022-12-08T23:54:40.730Z,77.74
2022-12-08T23:58:05.128Z,78.11
